Impacts METAR Board
IDs:

KDCA - Washington/National, VA, US

Updated at: 1100 UTC 23 Jun 2018
Potential Impact None Slight Moderate High
Time 22/23Z 23/00Z 23/01Z 23/02Z 23/03Z 23/04Z 23/05Z 23/06Z 23/07Z 23/08Z 23/09Z 23/10Z 23/11Z
Temp69 69 69 68 68 67 67 67 67 68 68 69 69
Dewpt64 64 64 64 63 64 64 64 65 65 65 66 67
Altim29.90 29.88 29.89 29.89 29.88 29.87 29.87 29.86 29.84 29.83 29.81 29.81 29.82
VIS10 10 10 10 10 10 9 3 2.5 4 10 10 2.5
CIG12 10 12 11 11 8 6 4 4 4 5 4 4
CoverOVCOVCOVCOVCOVCOVCOVCOVCOVCOVCOVCOVCOVC
FltCatMVFRMVFRMVFRMVFRMVFRIFRIFRLIFRLIFRLIFRIFRLIFRLIFR
WX-RA-------------DZ BR-DZ BR-DZ BR-----DZ BR
WDir206050507050302036050203010
WSpd6 12 11 9 11 9 6 5 6 6 5 6 4
WGst-- -- -- -- -- -- -- -- -- -- -- -- --
Raw hourly METARs
KDCA 222252Z 02006KT 10SM -RA OVC012 21/18 A2990 RMK AO2 RAB48 SLP125 P0000 T02060178
KDCA 222352Z 06012KT 10SM OVC010 21/18 A2988 RMK AO2 RAE25 SLP119 P0001 60004 T02060178 10228 20206 58003
KDCA 230052Z 05011KT 10SM OVC012 21/18 A2989 RMK AO2 SLP122 T02060178
KDCA 230152Z 05009KT 10SM OVC011 20/18 A2989 RMK AO2 SLP121 T02000178
KDCA 230252Z 07011KT 10SM OVC011 20/17 A2988 RMK AO2 SLP117 T02000172 58001
KDCA 230352Z 05009KT 10SM OVC008 19/18 A2987 RMK AO2 LTG DSNT S SLP115 T01940178
KDCA 230452Z 03006KT 9SM SCT004 OVC006 19/18 A2987 RMK AO2 SLP115 T01940178 402500194
KDCA 230552Z 02005KT 3SM -DZ BR OVC004 19/18 A2986 RMK AO2 DZB06 SLP111 P0000 60000 T01940178 10206 20194 58006
KDCA 230704Z 36006KT 2 1/2SM -DZ BR OVC004 19/18 A2984 RMK AO2 P0000 T01940183
KDCA 230752Z 05006KT 4SM -DZ BR BKN004 OVC014 20/18 A2983 RMK AO2 SLP100 P0001 T02000183
KDCA 230852Z 02005KT 10SM OVC005 20/18 A2981 RMK AO2 DZE43 SLP095 P0000 60001 T02000183 58009
KDCA 230952Z 03006KT 10SM OVC004 21/19 A2981 RMK AO2 RAB38E47 SLP095 P0000 T02060189
KDCA 231052Z 01004KT 2 1/2SM -DZ BR OVC004 21/19 A2982 RMK AO2 DZB44 SLP099 P0000 T02060194



Page loaded:  11:41 UTC  |   04:41 AM Pacific  |   05:41 AM Mountain  |   06:41 AM Central  |   07:41 AM Eastern

 

ADVISORIES

FORECASTS

FORECASTS

OBSERVATIONS

USER TOOLS

ABOUT US